Time;durP1;ratioP1;P1;durP2;ratioP2;P2;SDS_P1;SDS_P2;PMS_P1;PMS_P2;Temp;Humidity;BMP_temperature;BMP_pressure;BME280_temperature;BME280_humidity;BME280_pressure;Samples;Min_cycle;Max_cycle;Signal;HPM_P1;HPM_P2
2023/11/09 00:00:56;;;;;;;4.18;3.40;;;;;;;;;;5035340;28;20391;-78
2023/11/09 00:03:22;;;;;;;4.00;3.30;;;;;;;;;;5035745;28;20803;-79
2023/11/09 00:05:49;;;;;;;3.50;3.20;;;;;;;;;;5036150;28;20390;-79
2023/11/09 00:08:15;;;;;;;3.63;2.90;;;;;;;;;;5036727;28;20440;-79
2023/11/09 00:10:41;;;;;;;3.78;3.40;;;;;;;;;;5035685;28;20387;-78
2023/11/09 00:13:08;;;;;;;3.50;3.20;;;;;;;;;;5030633;28;20423;-78
2023/11/09 00:15:34;;;;;;;3.75;3.03;;;;;;;;;;5014668;28;20396;-80
2023/11/09 00:18:00;;;;;;;3.60;3.30;;;;;;;;;;5015396;28;20730;-80
2023/11/09 00:20:27;;;;;;;4.18;3.58;;;;;;;;;;5014838;28;20392;-78
2023/11/09 00:22:53;;;;;;;3.75;3.30;;;;;;;;;;5015380;28;20392;-78
2023/11/09 00:25:19;;;;;;;3.03;2.83;;;;;;;;;;5016419;28;20479;-78
2023/11/09 00:27:45;;;;;;;3.38;3.08;;;;;;;;;;5015909;28;20747;-78
2023/11/09 00:30:15;;;;;;;5.47;4.30;;;;;;;;;;5016301;28;20785;-79
2023/11/09 00:32:41;;;;;;;8.05;7.25;;;;;;;;;;5016106;28;20841;-78
2023/11/09 00:35:07;;;;;;;3.47;3.17;;;;;;;;;;5015945;28;20510;-79
2023/11/09 00:37:33;;;;;;;5.50;5.00;;;;;;;;;;5016195;28;20381;-79
2023/11/09 00:39:59;;;;;;;3.83;3.47;;;;;;;;;;5015159;28;20407;-78
2023/11/09 00:42:25;;;;;;;3.50;2.88;;;;;;;;;;5016094;28;20468;-78
2023/11/09 00:44:52;;;;;;;3.40;3.10;;;;;;;;;;5018616;28;20475;-78
2023/11/09 00:47:18;;;;;;;3.28;2.97;;;;;;;;;;5022933;28;20441;-79
2023/11/09 00:49:44;;;;;;;5.30;3.28;;;;;;;;;;5036078;28;20399;-78
2023/11/09 00:52:10;;;;;;;3.72;3.40;;;;;;;;;;5036340;28;20391;-78
2023/11/09 00:54:36;;;;;;;4.90;4.10;;;;;;;;;;5036094;28;20455;-78
2023/11/09 00:57:02;;;;;;;4.10;3.70;;;;;;;;;;5035293;28;20448;-78
2023/11/09 00:59:28;;;;;;;5.07;4.03;;;;;;;;;;5035933;28;20748;-79
2023/11/09 01:01:54;;;;;;;4.57;3.65;;;;;;;;;;5035571;28;20462;-79
2023/11/09 01:04:20;;;;;;;3.85;3.55;;;;;;;;;;5035902;28;20379;-78
2023/11/09 01:06:46;;;;;;;3.42;3.13;;;;;;;;;;5035149;28;20828;-79
2023/11/09 01:09:13;;;;;;;3.30;3.00;;;;;;;;;;5035667;28;20393;-78
2023/11/09 01:11:40;;;;;;;3.38;3.08;;;;;;;;;;5035482;28;20388;-78
2023/11/09 01:14:06;;;;;;;3.78;3.00;;;;;;;;;;5035243;28;20934;-79
2023/11/09 01:16:32;;;;;;;3.28;2.97;;;;;;;;;;5035346;28;20398;-78
2023/11/09 01:18:58;;;;;;;2.72;2.53;;;;;;;;;;5035674;28;20471;-78
2023/11/09 01:21:24;;;;;;;3.03;2.50;;;;;;;;;;5035155;28;20437;-79
2023/11/09 01:23:50;;;;;;;3.07;2.80;;;;;;;;;;5035189;28;20383;-79
2023/11/09 01:26:16;;;;;;;3.00;2.70;;;;;;;;;;5035368;28;20425;-78
2023/11/09 01:28:42;;;;;;;3.38;3.08;;;;;;;;;;5035054;28;20828;-78
2023/11/09 01:31:08;;;;;;;3.80;3.45;;;;;;;;;;5033725;28;20383;-79
2023/11/09 01:33:34;;;;;;;3.33;3.05;;;;;;;;;;5034478;28;20435;-79
2023/11/09 01:36:00;;;;;;;3.15;2.72;;;;;;;;;;5035144;28;20469;-79
2023/11/09 01:38:26;;;;;;;3.45;2.85;;;;;;;;;;5034845;28;20386;-79
2023/11/09 01:40:55;;;;;;;3.35;2.70;;;;;;;;;;5034725;28;20391;-78
2023/11/09 01:43:21;;;;;;;2.85;2.65;;;;;;;;;;5034807;28;20878;-78
2023/11/09 01:45:51;;;;;;;3.03;2.72;;;;;;;;;;5035239;28;20470;-78
2023/11/09 01:48:18;;;;;;;2.63;2.42;;;;;;;;;;5033911;28;20463;-78
2023/11/09 01:50:44;;;;;;;3.80;2.72;;;;;;;;;;5035658;28;20391;-79
2023/11/09 01:53:10;;;;;;;2.75;2.53;;;;;;;;;;5034448;28;20438;-78
2023/11/09 01:55:36;;;;;;;3.10;2.90;;;;;;;;;;5034950;28;20395;-78
2023/11/09 01:58:06;;;;;;;3.03;2.83;;;;;;;;;;5034916;28;20397;-78
2023/11/09 02:00:33;;;;;;;3.25;2.75;;;;;;;;;;5034632;28;20387;-78
2023/11/09 02:03:00;;;;;;;4.05;2.90;;;;;;;;;;5034789;28;20445;-78
2023/11/09 02:05:26;;;;;;;2.90;2.70;;;;;;;;;;5034343;28;20532;-78
2023/11/09 02:07:55;;;;;;;3.03;2.72;;;;;;;;;;5034526;28;20422;-78
2023/11/09 02:10:21;;;;;;;3.65;3.35;;;;;;;;;;5016706;28;20856;-79
2023/11/09 02:12:48;;;;;;;3.30;3.00;;;;;;;;;;5034690;28;20425;-79
2023/11/09 02:15:14;;;;;;;3.17;2.70;;;;;;;;;;5035077;28;20407;-79
2023/11/09 02:17:41;;;;;;;3.08;2.85;;;;;;;;;;5016937;28;20794;-78
2023/11/09 02:20:07;;;;;;;3.10;2.90;;;;;;;;;;5034908;28;20422;-79
2023/11/09 02:22:36;;;;;;;3.15;2.85;;;;;;;;;;5033987;28;20736;-79
2023/11/09 02:25:02;;;;;;;2.90;2.70;;;;;;;;;;5034213;28;20478;-79
2023/11/09 02:27:29;;;;;;;3.50;3.00;;;;;;;;;;5034550;28;20394;-79
2023/11/09 02:29:55;;;;;;;3.08;2.78;;;;;;;;;;5034152;28;20402;-78
2023/11/09 02:32:21;;;;;;;3.10;2.90;;;;;;;;;;5034472;28;20392;-78
2023/11/09 02:34:48;;;;;;;2.72;2.53;;;;;;;;;;5031235;28;20967;-78
2023/11/09 02:37:14;;;;;;;3.70;2.92;;;;;;;;;;5034023;28;20391;-78
2023/11/09 02:39:40;;;;;;;3.47;3.17;;;;;;;;;;5034153;28;20421;-78
2023/11/09 02:42:07;;;;;;;3.30;3.00;;;;;;;;;;5033471;28;20395;-78
2023/11/09 02:44:37;;;;;;;3.27;2.97;;;;;;;;;;5034202;28;20398;-78
2023/11/09 02:47:03;;;;;;;3.38;3.08;;;;;;;;;;5033509;28;20387;-78
2023/11/09 02:49:29;;;;;;;2.90;2.70;;;;;;;;;;5033595;28;20387;-78
2023/11/09 02:51:55;;;;;;;2.95;2.75;;;;;;;;;;5034045;28;20383;-78
2023/11/09 02:54:21;;;;;;;4.00;2.60;;;;;;;;;;5033352;28;20891;-78
2023/11/09 02:56:47;;;;;;;4.10;2.75;;;;;;;;;;5034180;28;20418;-78
2023/11/09 02:59:13;;;;;;;3.13;2.83;;;;;;;;;;5033550;28;20395;-79
2023/11/09 03:01:39;;;;;;;3.17;2.87;;;;;;;;;;5033376;28;20387;-78
2023/11/09 03:04:05;;;;;;;3.17;2.88;;;;;;;;;;5033742;28;20880;-78
2023/11/09 03:06:31;;;;;;;3.22;2.90;;;;;;;;;;5033902;28;20387;-78
2023/11/09 03:08:57;;;;;;;2.58;2.38;;;;;;;;;;5033421;28;20386;-78
2023/11/09 03:11:23;;;;;;;2.70;2.50;;;;;;;;;;5033767;28;20904;-78
2023/11/09 03:13:50;;;;;;;3.17;2.83;;;;;;;;;;5033233;28;20498;-78
2023/11/09 03:16:16;;;;;;;3.17;2.55;;;;;;;;;;5033430;28;20461;-78
2023/11/09 03:18:42;;;;;;;2.90;2.70;;;;;;;;;;5033239;28;20379;-78
2023/11/09 03:21:11;;;;;;;2.92;2.72;;;;;;;;;;5033312;28;20409;-78
2023/11/09 03:23:37;;;;;;;3.00;2.70;;;;;;;;;;5033830;28;20439;-78
2023/11/09 03:26:04;;;;;;;3.83;2.70;;;;;;;;;;5033643;28;20389;-78
2023/11/09 03:28:31;;;;;;;3.20;2.80;;;;;;;;;;5029027;28;20406;-79
2023/11/09 03:30:59;;;;;;;2.80;2.60;;;;;;;;;;5032487;28;20383;-78
2023/11/09 03:33:25;;;;;;;3.40;2.70;;;;;;;;;;5031765;28;20455;-78
2023/11/09 03:35:51;;;;;;;3.40;2.90;;;;;;;;;;5031196;28;20387;-78
2023/11/09 03:38:17;;;;;;;3.13;2.60;;;;;;;;;;5030929;28;20838;-79
2023/11/09 03:40:43;;;;;;;2.97;2.67;;;;;;;;;;5033500;28;20406;-78
2023/11/09 03:43:10;;;;;;;3.40;3.10;;;;;;;;;;5033369;28;20772;-78
2023/11/09 03:45:36;;;;;;;3.05;2.80;;;;;;;;;;5033183;28;20619;-78
2023/11/09 03:48:02;;;;;;;2.60;2.40;;;;;;;;;;5033316;28;20390;-78
2023/11/09 03:50:28;;;;;;;3.53;3.00;;;;;;;;;;5033109;28;21295;-78
2023/11/09 03:52:53;;;;;;;2.80;2.50;;;;;;;;;;5031304;28;20415;-78
2023/11/09 03:55:19;;;;;;;2.72;2.47;;;;;;;;;;5035946;28;20413;-78
2023/11/09 03:57:45;;;;;;;2.77;2.50;;;;;;;;;;5036279;28;20379;-78
2023/11/09 04:00:12;;;;;;;2.60;2.40;;;;;;;;;;5036584;28;20394;-78
2023/11/09 04:02:39;;;;;;;3.17;2.87;;;;;;;;;;5036535;28;20387;-78
2023/11/09 04:05:05;;;;;;;3.25;2.95;;;;;;;;;;5036166;28;20925;-78
2023/11/09 04:07:31;;;;;;;3.28;2.97;;;;;;;;;;5036292;28;20391;-78
2023/11/09 04:09:57;;;;;;;3.00;2.70;;;;;;;;;;5036142;28;20383;-78
2023/11/09 04:12:23;;;;;;;2.92;2.65;;;;;;;;;;5036913;28;20387;-78
2023/11/09 04:14:49;;;;;;;3.10;2.80;;;;;;;;;;5036452;28;20753;-78
2023/11/09 04:17:15;;;;;;;2.53;2.33;;;;;;;;;;5035642;28;20379;-79
2023/11/09 04:19:42;;;;;;;2.78;2.58;;;;;;;;;;5036589;28;20441;-78
2023/11/09 04:22:08;;;;;;;2.83;2.55;;;;;;;;;;5036033;28;20385;-78
2023/11/09 04:24:37;;;;;;;2.70;2.50;;;;;;;;;;5035914;28;20735;-78
2023/11/09 04:27:04;;;;;;;3.42;3.05;;;;;;;;;;5035838;28;20868;-78
2023/11/09 04:29:30;;;;;;;2.80;2.60;;;;;;;;;;5035724;28;20727;-78
2023/11/09 04:31:56;;;;;;;3.30;3.05;;;;;;;;;;5023627;28;20387;-78
2023/11/09 04:34:25;;;;;;;3.40;3.10;;;;;;;;;;5016006;28;20425;-78
2023/11/09 04:36:52;;;;;;;2.97;2.75;;;;;;;;;;5016283;28;20422;-78
2023/11/09 04:39:28;;;;;;;2.83;2.63;;;;;;;;;;5016492;28;20777;-78
2023/11/09 04:41:58;;;;;;;3.38;2.90;;;;;;;;;;5017962;28;20826;-79
2023/11/09 04:44:24;;;;;;;2.83;2.55;;;;;;;;;;5035787;28;20435;-78
2023/11/09 04:46:52;;;;;;;3.88;3.28;;;;;;;;;;5035978;28;20379;-78
2023/11/09 04:49:20;;;;;;;10.23;8.43;;;;;;;;;;5035737;28;20507;-78
2023/11/09 04:51:49;;;;;;;5.70;5.20;;;;;;;;;;5035618;28;20383;-78
2023/11/09 04:54:19;;;;;;;5.13;4.50;;;;;;;;;;5035538;28;20818;-78
2023/11/09 04:57:03;;;;;;;4.13;3.72;;;;;;;;;;5035998;28;20419;-78
2023/11/09 05:07:27;;;;;;;4.00;3.60;;;;;;;;;;5035547;28;20554;-78
2023/11/09 05:09:53;;;;;;;4.67;4.27;;;;;;;;;;5032565;28;20489;-79
2023/11/09 05:12:20;;;;;;;4.78;3.75;;;;;;;;;;5035072;28;20383;-79
2023/11/09 05:14:46;;;;;;;4.80;3.83;;;;;;;;;;5023827;28;20463;-79
2023/11/09 05:17:15;;;;;;;3.05;2.85;;;;;;;;;;5014308;28;20385;-79
2023/11/09 05:19:42;;;;;;;2.95;2.65;;;;;;;;;;5014983;28;20388;-79
2023/11/09 05:22:08;;;;;;;2.78;2.58;;;;;;;;;;5015177;28;20381;-79
2023/11/09 05:24:35;;;;;;;3.00;2.70;;;;;;;;;;5015389;28;20400;-78
2023/11/09 05:27:02;;;;;;;3.90;2.90;;;;;;;;;;5015243;28;20420;-79
2023/11/09 05:29:28;;;;;;;3.40;3.10;;;;;;;;;;5015351;28;20392;-79
2023/11/09 05:31:54;;;;;;;3.78;3.47;;;;;;;;;;5015270;28;20389;-79
2023/11/09 05:34:21;;;;;;;3.72;3.42;;;;;;;;;;5015912;28;20883;-79
2023/11/09 05:36:47;;;;;;;3.67;3.00;;;;;;;;;;5014942;28;20384;-79
2023/11/09 05:39:14;;;;;;;6.40;3.47;;;;;;;;;;5015527;28;20865;-79
2023/11/09 05:41:40;;;;;;;3.40;3.00;;;;;;;;;;5015096;28;20457;-79
2023/11/09 05:44:07;;;;;;;4.03;2.95;;;;;;;;;;5015035;28;20735;-79
2023/11/09 05:46:33;;;;;;;3.10;2.78;;;;;;;;;;5015900;28;20407;-79
2023/11/09 05:48:59;;;;;;;3.38;3.05;;;;;;;;;;5015615;28;20401;-79
2023/11/09 05:51:25;;;;;;;4.57;3.05;;;;;;;;;;5014926;28;20432;-79
2023/11/09 05:53:56;;;;;;;4.38;3.20;;;;;;;;;;5015066;28;20447;-79
2023/11/09 05:56:23;;;;;;;3.55;3.25;;;;;;;;;;5014461;28;20446;-79
2023/11/09 05:58:49;;;;;;;4.53;3.75;;;;;;;;;;5022899;28;20386;-79
2023/11/09 06:01:15;;;;;;;7.10;6.10;;;;;;;;;;5034446;28;20845;-79
2023/11/09 06:03:42;;;;;;;4.70;4.30;;;;;;;;;;5034431;28;20867;-79
2023/11/09 06:06:08;;;;;;;5.55;4.30;;;;;;;;;;5034324;28;20391;-79
2023/11/09 06:08:37;;;;;;;5.07;4.57;;;;;;;;;;5034409;28;20386;-79
2023/11/09 06:11:10;;;;;;;4.30;3.90;;;;;;;;;;5032605;28;21006;-79
2023/11/09 06:13:37;;;;;;;4.40;4.00;;;;;;;;;;5023414;28;20430;-79
2023/11/09 06:16:05;;;;;;;4.18;3.72;;;;;;;;;;5015405;28;20406;-79
2023/11/09 06:18:32;;;;;;;4.38;3.97;;;;;;;;;;5014113;28;20460;-79
2023/11/09 06:21:00;;;;;;;4.03;3.63;;;;;;;;;;5014176;28;20809;-79
2023/11/09 06:23:27;;;;;;;4.45;3.83;;;;;;;;;;5014272;28;20397;-79
2023/11/09 06:25:55;;;;;;;6.20;3.72;;;;;;;;;;5014576;28;20424;-79
2023/11/09 06:28:22;;;;;;;3.22;2.92;;;;;;;;;;5014157;28;20528;-79
2023/11/09 06:30:48;;;;;;;3.00;2.70;;;;;;;;;;5014751;28;20769;-79
2023/11/09 06:33:15;;;;;;;4.00;2.92;;;;;;;;;;5013660;28;21014;-79
2023/11/09 06:35:41;;;;;;;3.25;2.80;;;;;;;;;;5013888;28;20423;-79
2023/11/09 06:38:08;;;;;;;3.72;3.10;;;;;;;;;;5014551;28;20476;-79
2023/11/09 06:40:35;;;;;;;3.05;2.85;;;;;;;;;;5015951;28;20384;-79
2023/11/09 06:43:01;;;;;;;3.63;3.33;;;;;;;;;;5015922;28;20385;-79
2023/11/09 06:45:27;;;;;;;3.70;3.40;;;;;;;;;;5014233;28;20393;-79
2023/11/09 06:47:54;;;;;;;4.10;3.70;;;;;;;;;;5014400;28;20850;-79
2023/11/09 06:50:20;;;;;;;11.07;9.73;;;;;;;;;;5028823;28;20474;-79
2023/11/09 06:52:47;;;;;;;10.07;9.07;;;;;;;;;;5033697;28;20437;-79
2023/11/09 06:55:16;;;;;;;8.88;7.78;;;;;;;;;;5033998;28;20434;-79
2023/11/09 06:57:43;;;;;;;8.65;7.75;;;;;;;;;;5033293;28;20436;-79
2023/11/09 07:00:10;;;;;;;6.60;5.90;;;;;;;;;;5033854;28;20389;-79
2023/11/09 07:02:37;;;;;;;7.30;6.60;;;;;;;;;;5033276;28;20427;-79
2023/11/09 07:05:06;;;;;;;5.37;4.30;;;;;;;;;;5033820;28;20382;-79
2023/11/09 07:07:32;;;;;;;4.30;3.90;;;;;;;;;;5034736;28;20394;-79
2023/11/09 07:09:58;;;;;;;4.40;4.00;;;;;;;;;;5034300;28;20875;-80
2023/11/09 07:12:28;;;;;;;4.60;4.07;;;;;;;;;;5034453;28;20473;-80
2023/11/09 07:14:54;;;;;;;4.63;4.22;;;;;;;;;;5032540;28;20474;-80
2023/11/09 07:17:20;;;;;;;4.50;4.10;;;;;;;;;;5034641;28;20756;-80
2023/11/09 07:19:48;;;;;;;4.85;4.45;;;;;;;;;;5034702;28;20389;-80
2023/11/09 07:22:20;;;;;;;5.40;4.88;;;;;;;;;;5033463;28;20520;-80
2023/11/09 07:24:49;;;;;;;5.90;5.30;;;;;;;;;;5033706;28;20376;-80
2023/11/09 07:27:15;;;;;;;5.93;4.97;;;;;;;;;;5034090;28;20470;-80
2023/11/09 07:29:41;;;;;;;5.30;4.82;;;;;;;;;;5036412;28;20397;-80
2023/11/09 07:32:07;;;;;;;6.23;4.67;;;;;;;;;;5038257;28;20430;-80
2023/11/09 07:34:34;;;;;;;5.60;4.95;;;;;;;;;;5038223;28;20422;-79
2023/11/09 07:37:06;;;;;;;4.80;4.40;;;;;;;;;;5038846;28;20391;-79
2023/11/09 07:39:35;;;;;;;4.90;4.50;;;;;;;;;;5020920;28;20783;-79
2023/11/09 07:42:02;;;;;;;5.47;4.20;;;;;;;;;;5038367;28;20436;-80
2023/11/09 07:44:28;;;;;;;4.78;4.38;;;;;;;;;;5037825;28;20395;-80
2023/11/09 07:46:54;;;;;;;5.40;5.00;;;;;;;;;;5037622;28;20398;-78
2023/11/09 07:49:21;;;;;;;5.57;5.07;;;;;;;;;;5037845;28;20383;-79
2023/11/09 07:51:48;;;;;;;5.45;4.78;;;;;;;;;;5037477;28;20395;-79
2023/11/09 07:54:14;;;;;;;5.00;4.60;;;;;;;;;;5036955;28;20429;-79
2023/11/09 07:56:40;;;;;;;5.18;4.70;;;;;;;;;;5036355;28;20410;-79
2023/11/09 07:59:06;;;;;;;5.83;4.90;;;;;;;;;;5036709;28;20852;-79
2023/11/09 08:01:33;;;;;;;5.20;4.70;;;;;;;;;;5037028;28;20387;-79
2023/11/09 08:03:59;;;;;;;5.07;4.67;;;;;;;;;;5036658;28;20429;-79
2023/11/09 08:06:25;;;;;;;6.45;5.80;;;;;;;;;;5037794;28;20410;-79
2023/11/09 08:08:51;;;;;;;7.00;6.30;;;;;;;;;;5025612;28;20413;-79
2023/11/09 08:11:18;;;;;;;7.13;6.47;;;;;;;;;;5018018;28;20444;-79
2023/11/09 08:13:47;;;;;;;5.78;5.05;;;;;;;;;;5017175;28;20432;-79
2023/11/09 08:16:16;;;;;;;5.10;4.60;;;;;;;;;;5017847;28;20464;-80
2023/11/09 08:18:43;;;;;;;4.93;4.43;;;;;;;;;;5017769;28;20418;-80
2023/11/09 08:21:09;;;;;;;4.80;4.30;;;;;;;;;;5017613;28;20476;-79
2023/11/09 08:23:36;;;;;;;5.57;4.97;;;;;;;;;;5017786;28;20869;-79
2023/11/09 08:26:04;;;;;;;5.00;4.60;;;;;;;;;;5017343;28;20472;-79
2023/11/09 08:28:31;;;;;;;5.22;4.82;;;;;;;;;;5017667;28;20483;-80
2023/11/09 08:30:58;;;;;;;6.00;5.50;;;;;;;;;;5017695;28;20377;-80
2023/11/09 08:33:24;;;;;;;5.85;5.35;;;;;;;;;;5017426;28;20412;-80
2023/11/09 08:35:52;;;;;;;6.20;5.70;;;;;;;;;;5025974;28;20816;-80
2023/11/09 08:38:18;;;;;;;5.13;4.63;;;;;;;;;;5037226;28;20439;-80
2023/11/09 08:40:47;;;;;;;5.07;4.68;;;;;;;;;;5033497;28;20478;-80
2023/11/09 08:43:13;;;;;;;5.20;4.20;;;;;;;;;;5037985;28;20396;-80
2023/11/09 08:45:40;;;;;;;5.68;4.53;;;;;;;;;;5025679;28;20385;-80
2023/11/09 08:48:07;;;;;;;5.55;4.57;;;;;;;;;;5017467;28;20440;-80
2023/11/09 08:50:38;;;;;;;5.40;4.90;;;;;;;;;;5035423;28;20474;-80
2023/11/09 08:53:04;;;;;;;5.25;4.70;;;;;;;;;;5017764;28;20409;-80
2023/11/09 08:55:30;;;;;;;5.32;4.82;;;;;;;;;;5017141;28;20443;-79
2023/11/09 08:57:58;;;;;;;6.60;5.70;;;;;;;;;;5016644;28;20385;-80
2023/11/09 09:00:28;;;;;;;6.68;5.70;;;;;;;;;;5017504;28;20866;-80
2023/11/09 09:02:54;;;;;;;5.85;5.35;;;;;;;;;;5018315;28;20843;-80
2023/11/09 09:05:24;;;;;;;5.80;4.90;;;;;;;;;;5024707;28;20396;-80
2023/11/09 09:07:51;;;;;;;5.93;5.32;;;;;;;;;;5030077;28;20541;-80
2023/11/09 09:10:18;;;;;;;5.18;4.30;;;;;;;;;;5036111;28;20437;-80
2023/11/09 09:12:44;;;;;;;5.05;4.07;;;;;;;;;;5036241;28;20406;-80
2023/11/09 09:15:16;;;;;;;4.45;4.05;;;;;;;;;;5036461;28;20498;-80
2023/11/09 09:17:42;;;;;;;4.40;4.00;;;;;;;;;;5036547;28;20908;-80
2023/11/09 09:20:11;;;;;;;4.72;4.30;;;;;;;;;;5036492;28;20478;-80
2023/11/09 09:22:40;;;;;;;8.68;7.80;;;;;;;;;;5036662;28;20437;-79
2023/11/09 09:25:10;;;;;;;6.20;5.60;;;;;;;;;;5036152;28;20411;-79
2023/11/09 09:27:46;;;;;;;8.00;6.07;;;;;;;;;;5033175;28;20449;-79
2023/11/09 09:30:13;;;;;;;8.50;5.07;;;;;;;;;;5016968;28;20393;-80
2023/11/09 09:32:43;;;;;;;4.40;3.65;;;;;;;;;;5016455;28;20389;-80
2023/11/09 09:35:13;;;;;;;4.20;3.67;;;;;;;;;;5029711;28;20429;-79
2023/11/09 09:37:48;;;;;;;3.70;2.95;;;;;;;;;;5034113;28;20397;-79
2023/11/09 09:40:15;;;;;;;3.30;2.58;;;;;;;;;;5036336;28;20387;-79
2023/11/09 09:42:46;;;;;;;3.00;2.53;;;;;;;;;;5036194;28;20848;-79
2023/11/09 09:45:15;;;;;;;3.47;2.97;;;;;;;;;;5018090;28;20395;-79
2023/11/09 09:47:49;;;;;;;2.90;2.60;;;;;;;;;;5035915;28;20442;-79
2023/11/09 09:50:17;;;;;;;3.95;2.90;;;;;;;;;;5034461;28;20782;-79
2023/11/09 09:52:49;;;;;;;2.70;2.50;;;;;;;;;;5033346;28;20433;-79
2023/11/09 09:55:17;;;;;;;3.67;2.63;;;;;;;;;;5035700;28;20423;-79
2023/11/09 09:57:44;;;;;;;2.85;2.55;;;;;;;;;;5035913;28;20829;-79
2023/11/09 10:00:13;;;;;;;2.95;2.40;;;;;;;;;;5035050;28;20422;-78
2023/11/09 10:02:40;;;;;;;2.75;2.53;;;;;;;;;;5036609;28;20702;-80
2023/11/09 10:05:11;;;;;;;3.70;2.30;;;;;;;;;;5035526;28;20444;-79
2023/11/09 10:07:38;;;;;;;2.88;2.35;;;;;;;;;;5035557;28;20390;-79
2023/11/09 10:10:06;;;;;;;4.05;2.30;;;;;;;;;;5035749;28;20383;-79
2023/11/09 10:12:38;;;;;;;2.45;2.25;;;;;;;;;;5035093;28;20538;-79
2023/11/09 10:15:11;;;;;;;3.97;2.50;;;;;;;;;;5034452;28;20414;-79
2023/11/09 10:17:37;;;;;;;2.80;2.42;;;;;;;;;;5035515;28;20418;-79
2023/11/09 10:20:05;;;;;;;2.55;2.15;;;;;;;;;;5035623;28;20796;-79
2023/11/09 10:22:36;;;;;;;3.15;2.70;;;;;;;;;;5036014;28;20379;-79
2023/11/09 10:25:05;;;;;;;2.67;2.00;;;;;;;;;;5035876;28;20435;-79
2023/11/09 10:27:31;;;;;;;2.63;1.85;;;;;;;;;;5016510;28;20718;-79
2023/11/09 10:30:02;;;;;;;2.60;1.80;;;;;;;;;;5016861;28;20418;-79
2023/11/09 10:32:28;;;;;;;2.20;1.70;;;;;;;;;;5035434;28;20391;-79
2023/11/09 10:34:54;;;;;;;1.80;1.70;;;;;;;;;;5035482;28;20470;-80
2023/11/09 10:37:20;;;;;;;2.50;1.98;;;;;;;;;;5035285;28;20970;-80
2023/11/09 10:39:48;;;;;;;5.13;2.00;;;;;;;;;;5029252;28;20418;-80
2023/11/09 10:42:14;;;;;;;2.17;1.97;;;;;;;;;;5016038;28;20898;-80
2023/11/09 10:44:43;;;;;;;2.97;1.80;;;;;;;;;;5035364;28;20478;-80
2023/11/09 10:47:09;;;;;;;2.85;1.83;;;;;;;;;;5035110;28;20467;-80
2023/11/09 10:49:37;;;;;;;2.40;2.20;;;;;;;;;;5035649;28;20387;-80
2023/11/09 10:52:03;;;;;;;2.70;1.77;;;;;;;;;;5035547;28;20780;-80
2023/11/09 10:54:29;;;;;;;2.38;1.80;;;;;;;;;;5034648;28;20803;-80
2023/11/09 10:56:55;;;;;;;1.67;1.57;;;;;;;;;;5028105;28;20387;-79
2023/11/09 10:59:22;;;;;;;1.90;1.65;;;;;;;;;;5032435;28;20391;-79
2023/11/09 11:01:53;;;;;;;2.17;1.70;;;;;;;;;;5023610;28;20834;-79
2023/11/09 11:04:21;;;;;;;1.70;1.60;;;;;;;;;;5034496;28;20442;-79
2023/11/09 11:06:50;;;;;;;1.75;1.63;;;;;;;;;;5035027;28;20387;-79
2023/11/09 11:09:26;;;;;;;3.95;1.88;;;;;;;;;;5037884;28;20387;-79
2023/11/09 11:11:54;;;;;;;2.88;1.95;;;;;;;;;;5035852;28;20379;-79
2023/11/09 11:14:23;;;;;;;2.25;1.60;;;;;;;;;;5037928;28;20425;-80
2023/11/09 11:17:11;;;;;;;2.05;1.85;;;;;;;;;;5038613;28;20402;-79
2023/11/09 11:19:47;;;;;;;1.75;1.65;;;;;;;;;;5031896;28;20734;-79
2023/11/09 11:22:30;;;;;;;2.42;1.77;;;;;;;;;;5020494;28;20465;-79
2023/11/09 11:25:14;;;;;;;2.50;1.98;;;;;;;;;;5038045;28;20437;-79
2023/11/09 11:27:50;;;;;;;2.90;1.95;;;;;;;;;;5037867;28;20390;-80
2023/11/09 11:30:17;;;;;;;2.50;1.92;;;;;;;;;;5038488;28;20410;-79
2023/11/09 11:32:45;;;;;;;2.00;1.80;;;;;;;;;;5037402;28;20395;-80
2023/11/09 11:35:11;;;;;;;1.77;1.67;;;;;;;;;;5036457;28;20868;-79
2023/11/09 11:37:37;;;;;;;3.17;2.08;;;;;;;;;;5037698;28;20398;-79
2023/11/09 11:40:05;;;;;;;2.20;1.65;;;;;;;;;;5038682;28;20398;-79
2023/11/09 11:42:34;;;;;;;1.95;1.75;;;;;;;;;;5038227;28;20449;-79
2023/11/09 11:45:00;;;;;;;2.25;1.80;;;;;;;;;;5037899;28;20432;-79
2023/11/09 11:47:30;;;;;;;2.25;1.90;;;;;;;;;;5037578;28;20459;-79
2023/11/09 11:49:58;;;;;;;2.13;1.60;;;;;;;;;;5037838;28;20379;-79
2023/11/09 11:52:24;;;;;;;2.25;1.73;;;;;;;;;;5019946;28;20397;-80
2023/11/09 11:54:53;;;;;;;2.07;1.77;;;;;;;;;;5038109;28;20608;-79
2023/11/09 11:57:20;;;;;;;1.95;1.60;;;;;;;;;;5037215;28;20477;-79
2023/11/09 12:00:08;;;;;;;2.70;1.80;;;;;;;;;;5036732;28;20395;-78
2023/11/09 12:02:34;;;;;;;2.00;1.80;;;;;;;;;;5037035;28;20474;-79
2023/11/09 12:05:00;;;;;;;2.30;1.50;;;;;;;;;;5037408;28;20469;-79
2023/11/09 12:07:26;;;;;;;1.50;1.40;;;;;;;;;;5037473;28;20382;-79
2023/11/09 12:09:55;;;;;;;2.60;1.70;;;;;;;;;;5036003;28;20384;-79
2023/11/09 12:12:26;;;;;;;1.77;1.63;;;;;;;;;;5028320;28;20399;-78
2023/11/09 12:14:53;;;;;;;1.73;1.40;;;;;;;;;;5033893;28;20415;-79
2023/11/09 12:17:23;;;;;;;1.40;1.27;;;;;;;;;;5037074;28;20449;-79
2023/11/09 12:19:51;;;;;;;1.40;1.30;;;;;;;;;;5037352;28;20451;-79
2023/11/09 12:22:17;;;;;;;3.07;1.53;;;;;;;;;;5037057;28;20387;-79
2023/11/09 12:24:44;;;;;;;1.65;1.40;;;;;;;;;;5037366;28;20395;-79
2023/11/09 12:27:11;;;;;;;1.25;1.15;;;;;;;;;;5037165;28;20402;-79
2023/11/09 12:29:41;;;;;;;1.20;1.10;;;;;;;;;;5037117;28;20380;-79
2023/11/09 12:32:08;;;;;;;1.58;1.10;;;;;;;;;;5034486;28;20383;-78
2023/11/09 12:34:37;;;;;;;2.33;1.30;;;;;;;;;;5022161;28;20439;-79
2023/11/09 12:37:03;;;;;;;1.40;1.17;;;;;;;;;;5016776;28;20778;-79
2023/11/09 12:39:31;;;;;;;2.63;1.30;;;;;;;;;;5020809;28;20940;-79
2023/11/09 12:41:57;;;;;;;1.60;1.48;;;;;;;;;;5035775;28;20410;-78
2023/11/09 12:44:24;;;;;;;1.98;1.50;;;;;;;;;;5036585;28;20706;-79
2023/11/09 12:46:54;;;;;;;1.92;1.52;;;;;;;;;;5036594;28;20383;-79
2023/11/09 12:49:23;;;;;;;2.58;1.65;;;;;;;;;;5036808;28;20383;-79
2023/11/09 12:51:50;;;;;;;1.90;1.50;;;;;;;;;;5036308;28;20470;-78
2023/11/09 12:54:18;;;;;;;2.05;1.75;;;;;;;;;;5037020;28;20465;-78
2023/11/09 12:56:45;;;;;;;2.10;1.40;;;;;;;;;;5035552;28;20753;-79
2023/11/09 12:59:14;;;;;;;2.25;1.90;;;;;;;;;;5036449;28;20733;-80
2023/11/09 13:01:40;;;;;;;1.58;1.40;;;;;;;;;;5036201;28;20383;-79
2023/11/09 13:04:21;;;;;;;2.53;1.88;;;;;;;;;;5035917;28;20824;-79
2023/11/09 13:06:48;;;;;;;2.30;1.83;;;;;;;;;;5036751;28;20405;-79
2023/11/09 13:12:25;;;;;;;2.40;1.90;;;;;;;;;;5037086;28;20559;-79
2023/11/09 13:14:40;;;;;;;2.03;1.83;;;;;;;;;;5036259;28;20441;-79
2023/11/09 13:17:09;;;;;;;2.00;1.80;;;;;;;;;;5036690;28;20395;-80
2023/11/09 13:19:35;;;;;;;2.97;1.65;;;;;;;;;;5036260;28;20733;-80
2023/11/09 13:22:02;;;;;;;2.28;1.90;;;;;;;;;;5036451;28;20379;-80
2023/11/09 13:24:29;;;;;;;1.70;1.60;;;;;;;;;;5036656;28;20415;-80
2023/11/09 13:26:57;;;;;;;1.70;1.60;;;;;;;;;;5034927;28;20482;-80
2023/11/09 13:29:24;;;;;;;1.98;1.58;;;;;;;;;;5036082;28;20403;-80
2023/11/09 13:31:56;;;;;;;1.45;1.35;;;;;;;;;;5035977;28;20382;-80
2023/11/09 13:34:34;;;;;;;2.72;1.45;;;;;;;;;;5036080;28;20454;-80
2023/11/09 13:37:04;;;;;;;1.38;1.27;;;;;;;;;;5035839;28;20388;-80
2023/11/09 13:39:50;;;;;;;3.10;1.70;;;;;;;;;;5036644;28;20387;-81
2023/11/09 13:42:21;;;;;;;1.75;1.30;;;;;;;;;;5035030;28;20388;-80
2023/11/09 13:44:48;;;;;;;2.17;1.30;;;;;;;;;;5035509;28;20384;-80
2023/11/09 13:47:19;;;;;;;2.50;1.50;;;;;;;;;;5034274;28;20983;-80
2023/11/09 13:49:45;;;;;;;2.13;1.48;;;;;;;;;;5036142;28;20819;-80
2023/11/09 13:52:18;;;;;;;2.53;1.67;;;;;;;;;;5034299;28;20434;-81
2023/11/09 13:59:55;;;;;;;3.72;1.52;;;;;;;;;;5035870;28;20383;-81
2023/11/09 14:02:22;;;;;;;3.50;1.90;;;;;;;;;;5037333;28;20447;-80
2023/11/09 14:04:58;;;;;;;1.73;1.60;;;;;;;;;;5035892;28;20395;-80
2023/11/09 14:07:32;;;;;;;1.50;1.40;;;;;;;;;;5035747;28;20638;-80
2023/11/09 14:09:58;;;;;;;2.17;1.63;;;;;;;;;;5035792;28;20375;-80
2023/11/09 14:12:37;;;;;;;1.73;1.37;;;;;;;;;;5035938;28;20454;-80
2023/11/09 14:15:16;;;;;;;2.13;1.77;;;;;;;;;;5035637;28;20439;-80
2023/11/09 14:17:44;;;;;;;2.00;1.38;;;;;;;;;;5035756;28;20411;-80
2023/11/09 14:20:29;;;;;;;1.58;1.48;;;;;;;;;;5033579;28;20379;-80
2023/11/09 14:22:56;;;;;;;1.48;1.33;;;;;;;;;;5035498;28;20387;-80
2023/11/09 14:25:22;;;;;;;1.70;1.60;;;;;;;;;;5035393;28;20386;-80
2023/11/09 14:27:49;;;;;;;2.03;1.42;;;;;;;;;;5033083;28;20394;-79
2023/11/09 14:30:26;;;;;;;1.40;1.30;;;;;;;;;;5034888;28;20413;-79
2023/11/09 14:32:53;;;;;;;1.88;1.67;;;;;;;;;;5032157;28;20390;-80
2023/11/09 14:35:20;;;;;;;1.60;1.42;;;;;;;;;;5033114;28;20424;-79
2023/11/09 14:37:46;;;;;;;1.83;1.65;;;;;;;;;;5034352;28;20388;-80
2023/11/09 14:40:14;;;;;;;2.42;1.73;;;;;;;;;;5035122;28;20437;-79
2023/11/09 14:42:40;;;;;;;1.75;1.63;;;;;;;;;;5032396;28;20375;-79
2023/11/09 14:45:06;;;;;;;1.85;1.73;;;;;;;;;;5034937;28;20797;-79
2023/11/09 14:47:41;;;;;;;9.33;8.63;;;;;;;;;;5034585;28;20448;-80
2023/11/09 14:50:14;;;;;;;3.15;2.88;;;;;;;;;;5035410;28;20529;-80
2023/11/09 14:55:21;;;;;;;2.28;2.10;;;;;;;;;;5035003;28;20423;-79
2023/11/09 14:57:47;;;;;;;1.60;1.50;;;;;;;;;;5035215;28;20394;-79
2023/11/09 15:00:14;;;;;;;1.90;1.63;;;;;;;;;;5017036;28;20401;-79
2023/11/09 15:02:42;;;;;;;2.70;1.30;;;;;;;;;;5035528;28;20467;-82
2023/11/09 15:05:12;;;;;;;1.40;1.30;;;;;;;;;;5035077;28;20411;-79